In Rescue
 
Open Full Screen Window  High Contrast Mode
Wind Gusting 22 knots
12
May 20, 2019 2:30 PM EDT
Weather Information
Wind Direction
  230 °
Wind Speed
  12 kt (14 mph)
Wind Gust
  22 kt (25 mph)
Variable Wind
200°
260°
Altimeter
29.78 in
Visibility
10 SM
Temperature
28° C
82° F
Dewpoint
17° C
63° F
Humidity
51%
1hr Rain Fall
00.00 in.
24hr Rain Fall
00.70 in.
Sky Condition
Scattered @ 8,000 ft
Few @ 7,000 ft
Few @ 5,000 ft
VFR

METAR KUKT 201830Z AUTO 23012G22KT 200V260 10SM FEW050 FEW070 SCT080 28/17 A2978 RMK A01

FAA Disclaimer: The data displayed is for advisory purposes only and is not to be used for flight planning or operations.